Terminal Aerodrome Forecast
Issued by NWS

Home | Current Version | Previous Version | Text Only | Print | Product List | Glossary On
Versions: 1 2 3 4 5 6 7 8 9 10 11 12 13 14 15 16
000
FTUS45 KABQ 260530
TAFSAF
TAF
KSAF 260530Z 2606/2706 31008KT P6SM SCT050 BKN100
     FM260900 35011KT P6SM FEW040
     FM261500 28013G22KT P6SM SCT050
     FM262000 28020G30KT P6SM BKN060
     FM270200 32010KT P6SM BKN080=

USA.gov is the U.S. government's official web portal to all federal, state and local government web resources and services.